Time;durP1;ratioP1;P1;durP2;ratioP2;P2;SDS_P1;SDS_P2;PMS_P1;PMS_P2;Temp;Humidity;BMP_temperature;BMP_pressure;BME280_temperature;BME280_humidity;BME280_pressure;Samples;Min_cycle;Max_cycle;Signal;HPM_P1;HPM_P2
2022/05/18 00:01:39;;;;;;;;;;;;;;;23.45;47.17;100544.62;104658;1306;61354;-91
2022/05/18 00:04:07;;;;;;;5.50;3.40;;;;;;;23.42;47.17;100547.86;104583;1306;61374;-83
2022/05/18 00:06:38;;;;;;;6.50;3.80;;;;;;;23.42;47.28;100546.77;104534;1306;75669;-84
2022/05/18 00:09:04;;;;;;;5.30;3.50;;;;;;;23.43;47.23;100545.49;104496;1309;61290;-82
2022/05/18 00:11:32;;;;;;;6.00;3.70;;;;;;;23.43;47.29;100542.80;104622;1306;61374;-84
2022/05/18 00:14:01;;;;;;;5.60;3.20;;;;;;;23.43;47.30;100541.36;104505;1309;73222;-83
2022/05/18 00:16:27;;;;;;;6.00;3.40;;;;;;;23.42;47.36;100545.14;104497;1308;73713;-84
2022/05/18 00:18:56;;;;;;;10.10;3.80;;;;;;;23.42;47.28;100549.31;104688;1306;61242;-84
2022/05/18 00:21:22;;;;;;;5.10;3.40;;;;;;;23.42;47.38;100543.90;104543;1306;61164;-83
2022/05/18 00:23:53;;;;;;;9.60;3.70;;;;;;;23.42;47.39;100538.35;104612;1306;72110;-83
2022/05/18 00:26:30;;;;;;;5.90;3.50;;;;;;;23.42;47.43;100534.60;104478;1309;74229;-83
2022/05/18 00:28:55;;;;;;;7.30;3.50;;;;;;;23.42;47.41;100539.92;104575;1306;61275;-84
2022/05/18 00:31:21;;;;;;;7.00;3.70;;;;;;;23.42;47.47;100540.31;104836;1306;61312;-85
2022/05/18 00:33:47;;;;;;;7.40;3.90;;;;;;;23.42;47.46;100545.38;104560;1306;61311;-85
2022/05/18 00:36:15;;;;;;;5.70;3.50;;;;;;;23.42;47.55;100547.67;104473;1309;61216;-84
2022/05/18 00:38:44;;;;;;;7.70;3.70;;;;;;;23.42;47.56;100552.18;104449;1309;61364;-89
2022/05/18 00:41:10;;;;;;;6.10;3.50;;;;;;;23.42;47.56;100549.67;104636;1306;61189;-85
2022/05/18 00:43:45;;;;;;;5.50;3.60;;;;;;;23.42;47.56;100547.70;104684;1308;73817;-86
2022/05/18 00:46:13;;;;;;;7.00;3.60;;;;;;;23.42;47.59;100550.76;104643;1306;75289;-85
2022/05/18 00:48:42;;;;;;;6.20;3.60;;;;;;;23.42;47.56;100552.38;104629;1306;61282;-84
2022/05/18 00:51:23;;;;;;;5.60;3.30;;;;;;;23.42;47.58;100548.09;104514;1306;61460;-84
2022/05/18 00:54:13;;;;;;;6.90;3.70;;;;;;;23.41;47.66;100541.99;104760;1305;74225;-83
2022/05/18 00:56:42;;;;;;;6.30;3.80;;;;;;;23.41;47.67;100532.30;104630;1306;74899;-86
2022/05/18 00:59:16;;;;;;;5.90;3.70;;;;;;;23.41;47.70;100542.19;104680;1306;61614;-85
2022/05/18 01:01:44;;;;;;;8.10;3.80;;;;;;;23.41;47.72;100559.25;104572;1306;61428;-84
2022/05/18 01:04:10;;;;;;;8.50;3.80;;;;;;;23.42;47.64;100563.17;104649;1306;72857;-84
2022/05/18 01:06:40;;;;;;;6.10;3.70;;;;;;;23.41;47.68;100566.06;104540;1307;61468;-84
2022/05/18 01:09:15;;;;;;;5.70;3.50;;;;;;;23.41;47.72;100561.75;104644;1306;61470;-87
2022/05/18 01:11:40;;;;;;;7.20;3.70;;;;;;;23.41;47.76;100553.13;104581;1309;61198;-84
2022/05/18 01:14:19;;;;;;;5.30;3.50;;;;;;;23.41;47.76;100551.40;104617;1308;61291;-83
2022/05/18 01:16:55;;;;;;;9.30;3.70;;;;;;;23.41;47.73;100551.57;104540;1306;75831;-82
2022/05/18 01:19:39;;;;;;;5.80;3.50;;;;;;;23.41;47.70;100548.70;104531;1309;61208;-83
2022/05/18 01:22:28;;;;;;;6.30;3.20;;;;;;;23.40;47.78;100543.89;104567;1306;61305;-87
2022/05/18 01:25:27;;;;;;;5.30;3.10;;;;;;;23.40;47.70;100531.89;104667;1306;72039;-84
2022/05/18 01:27:53;;;;;;;5.70;3.40;;;;;;;23.40;47.73;100526.36;104178;1314;73964;-84
2022/05/18 01:30:21;;;;;;;5.00;3.30;;;;;;;23.39;47.78;100531.58;103877;1314;61269;-84
2022/05/18 01:32:51;;;;;;;5.80;3.50;;;;;;;23.40;47.72;100531.20;103858;1317;61298;-81
2022/05/18 01:35:20;;;;;;;5.10;3.30;;;;;;;23.40;47.69;100533.20;103703;1317;72989;-84
2022/05/18 01:37:48;;;;;;;6.00;3.20;;;;;;;23.40;47.72;100542.36;103808;1314;74710;-85
2022/05/18 01:40:18;;;;;;;5.80;3.20;;;;;;;23.39;47.80;100551.00;104211;1312;61280;-85
2022/05/18 01:42:50;;;;;;;5.70;3.20;;;;;;;23.39;47.69;100555.13;104145;1314;61454;-84
2022/05/18 01:45:15;;;;;;;5.60;3.20;;;;;;;23.39;47.83;100564.86;103908;1314;71805;-85
2022/05/18 01:47:41;;;;;;;5.80;3.00;;;;;;;23.39;47.75;100566.84;104177;1314;61472;-85
2022/05/18 01:50:12;;;;;;;4.30;2.70;;;;;;;23.39;47.77;100556.77;103767;1314;61328;-86
2022/05/18 01:52:40;;;;;;;5.70;3.20;;;;;;;23.39;47.78;100554.23;104074;1314;61150;-85
2022/05/18 01:55:06;;;;;;;5.10;3.20;;;;;;;23.38;47.78;100553.77;103882;1314;72760;-86
2022/05/18 01:57:33;;;;;;;5.20;3.00;;;;;;;23.38;47.82;100561.52;104123;1314;61270;-85
2022/05/18 01:59:59;;;;;;;5.40;3.10;;;;;;;23.39;47.78;100561.45;103879;1314;61484;-84
2022/05/18 02:02:24;;;;;;;5.50;3.40;;;;;;;23.38;47.73;100554.13;104143;1314;61407;-85
2022/05/18 02:04:53;;;;;;;4.60;2.90;;;;;;;23.38;47.78;100548.92;104061;1309;72768;-84
2022/05/18 02:07:21;;;;;;;5.90;2.90;;;;;;;23.37;47.82;100537.85;104619;1306;61371;-85
2022/05/18 02:09:51;;;;;;;5.60;3.00;;;;;;;23.37;47.75;100534.46;104633;1306;61148;-86
2022/05/18 02:12:20;;;;;;;4.00;2.60;;;;;;;23.37;47.75;100533.56;104594;1307;59737;-87
2022/05/18 02:14:46;;;;;;;5.00;2.80;;;;;;;23.37;47.65;100537.91;104535;1306;73125;-85
2022/05/18 02:17:12;;;;;;;4.70;3.00;;;;;;;23.36;47.72;100538.50;104643;1306;61965;-83
2022/05/18 02:19:38;;;;;;;5.70;3.00;;;;;;;23.36;47.71;100547.67;104550;1306;61444;-84
2022/05/18 02:22:04;;;;;;;4.90;2.60;;;;;;;23.36;47.65;100553.27;104539;1306;61345;-84
2022/05/18 02:24:30;;;;;;;5.60;2.70;;;;;;;23.36;47.69;100548.95;104428;1312;61180;-83
2022/05/18 02:26:59;;;;;;;4.80;2.80;;;;;;;23.36;47.64;100550.95;104456;1311;61607;-85
2022/05/18 02:29:27;;;;;;;4.50;2.70;;;;;;;23.35;47.63;100554.40;104439;1312;61288;-83
2022/05/18 02:31:57;;;;;;;4.80;3.00;;;;;;;23.35;47.63;100563.02;104434;1312;61290;-84
2022/05/18 02:34:23;;;;;;;4.00;2.90;;;;;;;23.35;47.57;100573.67;104359;1312;72878;-84
2022/05/18 02:36:51;;;;;;;4.50;2.90;;;;;;;23.35;47.54;100589.42;104409;1312;61290;-86
2022/05/18 02:39:20;;;;;;;6.40;2.70;;;;;;;23.34;47.56;100600.08;104332;1312;61168;-86
2022/05/18 02:41:48;;;;;;;5.00;2.70;;;;;;;23.34;47.57;100608.36;104376;1312;61371;-84
2022/05/18 02:44:15;;;;;;;5.90;2.80;;;;;;;23.34;47.61;100601.36;104309;1312;61917;-84
2022/05/18 02:46:43;;;;;;;4.50;2.60;;;;;;;23.34;47.57;100596.35;104359;1310;61316;-84
2022/05/18 02:49:10;;;;;;;6.10;2.50;;;;;;;23.33;47.50;100595.50;104364;1310;61295;-85
2022/05/18 02:51:39;;;;;;;5.30;2.70;;;;;;;23.33;47.53;100589.94;104458;1312;61587;-86
2022/05/18 02:56:05;;;;;;;5.20;2.60;;;;;;;23.33;47.44;100588.38;104454;1312;73992;-84
2022/05/18 02:56:52;;;;;;;4.80;2.70;;;;;;;23.33;47.46;100596.08;104479;1310;73682;-91
2022/05/18 02:59:19;;;;;;;4.90;2.50;;;;;;;23.32;47.43;100592.77;104419;1312;59735;-84
2022/05/18 03:01:45;;;;;;;4.20;2.40;;;;;;;23.32;47.38;100596.54;104418;1306;61161;-85
2022/05/18 03:04:11;;;;;;;4.20;2.20;;;;;;;23.32;47.41;100596.87;104564;1306;61292;-85
2022/05/18 03:06:37;;;;;;;5.30;2.70;;;;;;;23.32;47.34;100601.89;104544;1306;61451;-83
2022/05/18 03:09:03;;;;;;;6.10;2.70;;;;;;;23.32;47.33;100602.83;104555;1306;61310;-84
2022/05/18 03:11:29;;;;;;;4.30;2.40;;;;;;;23.31;47.31;100605.73;104642;1306;61292;-86
2022/05/18 03:13:54;;;;;;;4.50;2.30;;;;;;;23.31;47.22;100607.86;104493;1307;61288;-85
2022/05/18 03:16:23;;;;;;;4.10;2.30;;;;;;;23.32;47.37;100611.99;104846;1306;61385;-83
2022/05/18 03:18:49;;;;;;;4.20;2.20;;;;;;;23.31;47.26;100601.27;104603;1306;74841;-82
2022/05/18 03:24:07;;;;;;;4.20;2.20;;;;;;;23.30;47.24;100593.79;104820;1305;61204;-83
2022/05/18 03:26:33;;;;;;;4.30;2.30;;;;;;;23.30;47.22;100604.60;104552;1304;71663;-82
2022/05/18 03:29:10;;;;;;;5.20;2.30;;;;;;;23.29;47.15;100607.88;104435;1306;73775;-84
2022/05/18 03:31:36;;;;;;;4.20;2.10;;;;;;;23.29;47.11;100613.09;104456;1306;61252;-84
2022/05/18 03:34:02;;;;;;;4.10;2.40;;;;;;;23.29;47.05;100615.39;104516;1306;61325;-84
2022/05/18 03:36:31;;;;;;;4.10;2.30;;;;;;;23.29;47.04;100622.41;104610;1306;72648;-84
2022/05/18 03:38:57;;;;;;;4.40;2.30;;;;;;;23.29;46.97;100634.46;104637;1306;75302;-84
2022/05/18 03:41:23;;;;;;;4.80;2.40;;;;;;;23.29;46.99;100644.16;104829;1306;60052;-89
2022/05/18 03:43:51;;;;;;;5.00;2.50;;;;;;;23.29;46.99;100656.73;104499;1306;61349;-83
2022/05/18 03:46:20;;;;;;;4.50;2.20;;;;;;;23.29;47.03;100662.88;104414;1306;73747;-83
2022/05/18 03:48:45;;;;;;;4.30;2.20;;;;;;;23.29;46.93;100664.15;104324;1306;75710;-83
2022/05/18 03:51:14;;;;;;;4.70;2.40;;;;;;;23.28;46.95;100665.44;104281;1306;61391;-83
2022/05/18 03:53:40;;;;;;;5.10;2.20;;;;;;;23.27;46.86;100666.73;104327;1306;61288;-85
2022/05/18 03:56:05;;;;;;;5.80;2.30;;;;;;;23.27;46.72;100667.31;104380;1306;61413;-84
2022/05/18 03:58:31;;;;;;;5.30;2.00;;;;;;;23.26;46.69;100674.93;104503;1306;61144;-84
2022/05/18 04:01:00;;;;;;;4.30;2.30;;;;;;;23.26;46.65;100678.66;104288;1304;61423;-84
2022/05/18 04:03:26;;;;;;;6.60;2.50;;;;;;;23.26;46.59;100682.10;104412;1306;61547;-82
2022/05/18 04:05:53;;;;;;;4.10;2.20;;;;;;;23.26;46.50;100683.91;104455;1306;61279;-83
2022/05/18 04:08:19;;;;;;;6.20;2.40;;;;;;;23.25;46.41;100684.10;104291;1307;61157;-83
2022/05/18 04:10:47;;;;;;;4.20;2.10;;;;;;;23.26;46.33;100689.85;104400;1306;61057;-84
2022/05/18 04:13:17;;;;;;;6.60;2.30;;;;;;;23.26;46.39;100693.09;104337;1306;61356;-84
2022/05/18 04:15:43;;;;;;;4.40;2.00;;;;;;;23.24;46.23;100698.22;104532;1306;72706;-85
2022/05/18 04:18:08;;;;;;;5.20;2.20;;;;;;;23.24;46.09;100705.04;104277;1306;61306;-83
2022/05/18 04:20:34;;;;;;;3.70;2.10;;;;;;;23.23;45.95;100710.02;104263;1306;61284;-83
2022/05/18 04:23:00;;;;;;;6.10;1.90;;;;;;;23.19;45.81;100726.09;104299;1306;62856;-83
2022/05/18 04:25:26;;;;;;;4.50;2.10;;;;;;;23.12;45.58;100738.00;104080;1306;61423;-82
2022/05/18 04:27:53;;;;;;;5.10;2.10;;;;;;;23.05;45.49;100741.25;104128;1306;61427;-82
2022/05/18 04:30:19;;;;;;;4.20;2.20;;;;;;;23.03;45.30;100743.20;104290;1306;61184;-83
2022/05/18 04:32:46;;;;;;;3.90;1.80;;;;;;;23.00;45.21;100742.01;104298;1306;61341;-82
2022/05/18 04:35:13;;;;;;;7.40;2.20;;;;;;;22.98;45.04;100753.98;103945;1306;61252;-83
2022/05/18 04:37:39;;;;;;;4.00;1.90;;;;;;;22.98;44.89;100758.34;104307;1307;61167;-83
2022/05/18 04:40:06;;;;;;;3.20;1.80;;;;;;;22.97;44.86;100757.11;103952;1306;61313;-84
2022/05/18 04:42:32;;;;;;;5.60;2.10;;;;;;;22.97;44.95;100762.30;103956;1306;61281;-83
2022/05/18 04:44:57;;;;;;;6.20;1.90;;;;;;;22.98;44.82;100756.36;103878;1307;61294;-83
2022/05/18 04:47:24;;;;;;;4.50;2.00;;;;;;;22.97;44.83;100762.70;104069;1306;61281;-82
2022/05/18 04:49:51;;;;;;;6.10;2.20;;;;;;;22.95;44.68;100761.02;104032;1306;74786;-83
2022/05/18 04:52:20;;;;;;;5.00;2.10;;;;;;;22.97;44.63;100763.44;104097;1305;61322;-82
2022/05/18 04:54:45;;;;;;;;;;;;;;;22.96;44.69;100772.45;104008;1306;61291;-84
2022/05/18 04:57:11;;;;;;;4.00;1.90;;;;;;;22.89;44.71;100775.10;103915;1306;61327;-82
2022/05/18 04:59:37;;;;;;;6.20;2.00;;;;;;;22.78;44.51;100777.64;103786;1306;63969;-82
2022/05/18 05:02:02;;;;;;;6.10;2.20;;;;;;;22.65;44.70;100781.52;103879;1306;62106;-82
2022/05/18 05:04:28;;;;;;;5.60;2.00;;;;;;;22.65;44.78;100784.90;103705;1306;61304;-83
2022/05/18 05:06:54;;;;;;;7.50;2.20;;;;;;;22.68;44.88;100795.47;103611;1306;61337;-84
2022/05/18 05:09:30;;;;;;;5.30;2.00;;;;;;;22.71;44.73;100792.91;103801;1306;74416;-83
2022/05/18 05:12:46;;;;;;;;;;;;;;;;;;;;;
2022/05/18 05:15:23;;;;;;;3.70;1.90;;;;;;;22.75;44.85;100796.67;103184;1314;60820;-85
2022/05/18 05:21:46;;;;;;;;;;;;;;;;;;;;;
2022/05/18 05:24:29;;;;;;;7.70;2.10;;;;;;;22.81;44.70;100819.44;103138;1314;73057;-82
2022/05/18 05:26:55;;;;;;;6.90;2.10;;;;;;;22.84;44.72;100824.57;102840;1315;64031;-83
2022/05/18 05:29:21;;;;;;;7.60;2.30;;;;;;;22.87;44.68;100830.02;102885;1314;61598;-83
2022/05/18 05:31:46;;;;;;;7.10;2.10;;;;;;;22.89;44.69;100832.16;102928;1316;61442;-82
2022/05/18 05:34:12;;;;;;;6.50;1.80;;;;;;;22.91;44.65;100834.34;103105;1314;61906;-81
2022/05/18 05:36:38;;;;;;;7.30;2.00;;;;;;;22.94;44.70;100838.62;102890;1317;60061;-82
2022/05/18 05:39:06;;;;;;;4.50;2.00;;;;;;;22.97;44.62;100848.11;103259;1314;61454;-82
2022/05/18 05:41:32;;;;;;;5.60;1.80;;;;;;;22.99;44.64;100850.30;102864;1316;61291;-81
2022/05/18 05:43:57;;;;;;;8.60;2.10;;;;;;;23.01;44.59;100857.65;103123;1315;61424;-83
2022/05/18 05:46:27;;;;;;;6.60;2.40;;;;;;;23.02;44.62;100867.77;103354;1314;61316;-84
2022/05/18 05:48:53;;;;;;;7.20;2.00;;;;;;;23.04;44.59;100870.55;103374;1314;61578;-81
2022/05/18 05:51:19;;;;;;;5.60;2.00;;;;;;;23.04;44.58;100882.70;103263;1314;61824;-83
2022/05/18 05:53:45;;;;;;;12.10;2.30;;;;;;;23.05;44.56;100887.50;103578;1306;60190;-81
2022/05/18 05:56:12;;;;;;;11.50;2.40;;;;;;;22.93;44.18;100897.42;103566;1308;61307;-83
2022/05/18 05:58:38;;;;;;;7.90;2.10;;;;;;;22.77;44.18;100898.11;105094;1307;60827;-83
2022/05/18 06:01:05;;;;;;;11.40;2.30;;;;;;;22.78;44.28;100903.41;105171;1306;59337;-83
2022/05/18 06:03:31;;;;;;;9.00;2.10;;;;;;;22.82;44.31;100905.63;105175;1306;60926;-84
2022/05/18 06:05:56;;;;;;;9.60;2.50;;;;;;;22.84;44.29;100906.15;105568;1306;58859;-83
2022/05/18 06:08:23;;;;;;;8.30;2.50;;;;;;;22.88;44.20;100910.34;105512;1306;59732;-83
2022/05/18 06:10:48;;;;;;;10.50;2.30;;;;;;;22.91;44.26;100915.86;105231;1306;59203;-83
2022/05/18 06:13:14;;;;;;;5.10;1.90;;;;;;;22.94;44.13;100925.14;105218;1306;59445;-82
2022/05/18 06:15:40;;;;;;;7.60;2.10;;;;;;;22.97;44.14;100935.69;105284;1305;59696;-83
2022/05/18 06:18:06;;;;;;;6.60;2.00;;;;;;;23.00;44.08;100943.58;105121;1306;75575;-83
2022/05/18 06:20:32;;;;;;;6.10;2.10;;;;;;;23.02;44.06;100949.31;103685;1306;61846;-82
2022/05/18 06:22:58;;;;;;;6.40;2.20;;;;;;;23.04;44.02;100965.84;103823;1306;62811;-82
2022/05/18 06:25:24;;;;;;;8.00;2.00;;;;;;;23.05;43.94;100962.15;103740;1306;61345;-83
2022/05/18 06:27:50;;;;;;;7.00;2.20;;;;;;;23.06;43.85;100968.88;103844;1306;61340;-83
2022/05/18 06:30:15;;;;;;;8.40;2.40;;;;;;;23.07;43.97;100974.56;103709;1306;61342;-82
2022/05/18 06:32:41;;;;;;;7.20;1.90;;;;;;;23.08;43.84;100983.31;103836;1306;61304;-83
2022/05/18 06:35:07;;;;;;;5.80;2.30;;;;;;;23.08;43.82;100980.22;103761;1306;61474;-84
2022/05/18 06:37:33;;;;;;;7.70;2.10;;;;;;;23.09;43.90;100994.36;103732;1306;71644;-83
2022/05/18 06:39:58;;;;;;;9.60;2.20;;;;;;;23.09;43.76;100997.39;103741;1306;61278;-83
2022/05/18 06:42:24;;;;;;;6.60;2.00;;;;;;;23.09;43.65;101000.44;103820;1306;61435;-83
2022/05/18 06:44:50;;;;;;;7.20;2.00;;;;;;;23.09;43.72;101004.19;103846;1307;61372;-84
2022/05/18 06:47:16;;;;;;;6.60;2.20;;;;;;;23.09;43.68;101004.73;103857;1306;62000;-83
2022/05/18 06:49:42;;;;;;;6.60;2.30;;;;;;;23.09;43.58;101008.18;103830;1306;61256;-83
2022/05/18 06:52:09;;;;;;;11.00;2.10;;;;;;;23.08;43.52;101011.48;103742;1306;61459;-83
2022/05/18 06:54:41;;;;;;;7.20;2.20;;;;;;;23.07;43.49;101013.70;103537;1306;61616;-81
2022/05/18 06:57:07;;;;;;;12.10;2.30;;;;;;;23.06;43.24;101022.77;103703;1306;61260;-82
2022/05/18 06:59:32;;;;;;;12.70;2.60;;;;;;;23.03;43.02;101020.11;103847;1306;62308;-83
2022/05/18 07:01:59;;;;;;;15.00;2.30;;;;;;;23.02;43.01;101027.06;103638;1306;61182;-82
2022/05/18 07:04:24;;;;;;;11.50;2.30;;;;;;;23.01;42.97;101029.27;103715;1306;61451;-83
2022/05/18 07:06:50;;;;;;;7.80;2.50;;;;;;;23.02;43.16;101036.36;103658;1306;61384;-81
2022/05/18 07:09:18;;;;;;;15.30;2.70;;;;;;;23.04;43.35;101041.22;103659;1306;61399;-80
2022/05/18 07:11:45;;;;;;;10.50;2.60;;;;;;;23.06;43.51;101046.48;103540;1306;73675;-81
2022/05/18 07:14:12;;;;;;;12.10;2.60;;;;;;;23.07;43.70;101045.48;103527;1306;75947;-83
2022/05/18 07:16:38;;;;;;;10.60;2.80;;;;;;;23.09;43.83;101045.36;103658;1306;61176;-82
2022/05/18 07:19:03;;;;;;;11.90;2.70;;;;;;;23.09;43.80;101043.35;103654;1306;63570;-82
2022/05/18 07:21:29;;;;;;;8.90;2.50;;;;;;;23.10;43.86;101040.40;103802;1306;61329;-83
2022/05/18 07:23:55;;;;;;;7.90;2.40;;;;;;;23.09;43.87;101040.84;103740;1306;61431;-83
2022/05/18 07:26:21;;;;;;;13.80;2.80;;;;;;;23.09;43.58;101039.96;103702;1306;61311;-81
2022/05/18 07:28:46;;;;;;;9.70;2.40;;;;;;;23.08;43.66;101045.02;103961;1306;61355;-81
2022/05/18 07:31:12;;;;;;;15.40;2.70;;;;;;;23.09;43.62;101052.54;103933;1306;62213;-82
2022/05/18 07:33:38;;;;;;;6.70;2.80;;;;;;;23.09;43.52;101056.13;103692;1307;61381;-81
2022/05/18 07:36:04;;;;;;;10.90;3.10;;;;;;;23.08;43.46;101061.23;103829;1307;62350;-82
2022/05/18 07:38:30;;;;;;;9.70;2.60;;;;;;;23.06;43.21;101070.49;103879;1309;61339;-82
2022/05/18 07:40:55;;;;;;;10.90;2.70;;;;;;;23.05;43.05;101076.53;103794;1309;63875;-82
2022/05/18 07:43:21;;;;;;;8.50;2.40;;;;;;;23.02;42.73;101087.86;103632;1306;61407;-82
2022/05/18 07:45:47;;;;;;;16.60;2.70;;;;;;;23.00;42.70;101087.81;103757;1306;61296;-83
2022/05/18 07:48:13;;;;;;;19.10;3.00;;;;;;;23.00;42.55;101092.00;105308;1306;75698;-81
2022/05/18 07:50:39;;;;;;;11.90;2.90;;;;;;;22.99;42.35;101092.27;104459;1306;61315;-82
2022/05/18 07:53:04;;;;;;;18.40;2.90;;;;;;;22.99;42.29;101096.04;103929;1306;61317;-82
2022/05/18 07:55:30;;;;;;;12.00;2.70;;;;;;;22.97;42.05;101098.33;103569;1306;61395;-82
2022/05/18 07:57:56;;;;;;;16.80;2.60;;;;;;;22.85;41.82;101096.33;103652;1306;61522;-81
2022/05/18 08:00:23;;;;;;;11.90;3.00;;;;;;;22.79;41.76;101099.80;103694;1306;61298;-82
2022/05/18 08:02:49;;;;;;;12.50;2.60;;;;;;;22.75;41.51;101101.52;105222;1306;61326;-83
2022/05/18 08:05:15;;;;;;;9.00;2.40;;;;;;;22.74;41.86;101101.75;105200;1306;59587;-82
2022/05/18 08:07:45;;;;;;;12.20;2.90;;;;;;;22.76;42.05;101100.04;104303;1306;61285;-81
2022/05/18 08:15:44;;;;;;;15.90;2.90;;;;;;;22.66;42.42;101113.49;104628;1306;61207;-83
2022/05/18 08:18:10;;;;;;;14.40;2.60;;;;;;;22.70;42.65;101125.59;104034;1303;61258;-83
2022/05/18 08:20:38;;;;;;;12.40;3.00;;;;;;;22.73;42.68;101121.97;103645;1306;61528;-82
2022/05/18 08:23:05;;;;;;;12.20;2.90;;;;;;;22.76;42.88;101125.36;105349;1306;60380;-82
2022/05/18 08:25:31;;;;;;;7.20;2.40;;;;;;;22.74;42.73;101133.69;105322;1306;59426;-82
2022/05/18 08:27:56;;;;;;;11.10;2.60;;;;;;;22.73;42.73;101140.21;104224;1306;60131;-81
2022/05/18 08:30:22;;;;;;;9.50;2.30;;;;;;;22.75;42.66;101141.18;103673;1306;63481;-83
2022/05/18 08:32:48;;;;;;;12.80;2.40;;;;;;;22.77;42.61;101149.29;103639;1307;61307;-80
2022/05/18 08:35:14;;;;;;;7.70;2.20;;;;;;;22.79;42.53;101149.86;103826;1306;61421;-82
2022/05/18 08:37:47;;;;;;;11.10;2.30;;;;;;;22.81;42.52;101147.95;103560;1309;61209;-82
2022/05/18 08:40:34;;;;;;;10.40;2.20;;;;;;;22.82;42.48;101151.25;104050;1306;74237;-81
2022/05/18 08:43:07;;;;;;;9.80;2.40;;;;;;;22.84;42.42;101152.23;103816;1306;74858;-81
2022/05/18 08:45:35;;;;;;;8.90;2.30;;;;;;;22.85;42.38;101158.73;103760;1306;61361;-82
2022/05/18 08:48:18;;;;;;;10.00;2.30;;;;;;;22.87;42.44;101160.39;104492;1305;61651;-81
2022/05/18 08:50:43;;;;;;;12.50;2.70;;;;;;;22.87;42.18;101168.86;103721;1306;72903;-84
2022/05/18 08:53:49;;;;;;;6.40;2.20;;;;;;;22.72;41.60;101175.85;103710;1306;61307;-81
2022/05/18 08:56:19;;;;;;;9.40;2.40;;;;;;;22.56;41.39;101183.29;103670;1306;61330;-84
2022/05/18 08:58:47;;;;;;;9.80;2.20;;;;;;;22.44;41.26;101182.36;105177;1307;60413;-81
2022/05/18 09:01:15;;;;;;;7.50;2.10;;;;;;;22.37;41.20;101184.39;105167;1306;72771;-82
2022/05/18 09:04:05;;;;;;;10.40;2.60;;;;;;;22.33;41.19;101189.88;105142;1306;74966;-82
2022/05/18 09:06:45;;;;;;;12.40;2.70;;;;;;;22.34;41.16;101187.73;105172;1306;61106;-83
2022/05/18 09:12:10;;;;;;;10.90;2.50;;;;;;;22.38;41.02;101194.05;105156;1306;72791;-82
2022/05/18 09:14:39;;;;;;;8.90;2.30;;;;;;;22.43;40.92;101196.54;105372;1306;60489;-82
2022/05/18 09:17:34;;;;;;;10.70;2.30;;;;;;;22.49;41.03;101196.86;105348;1306;60229;-83
2022/05/18 09:20:00;;;;;;;11.00;2.10;;;;;;;22.55;41.17;101202.88;104740;1314;60544;-81
2022/05/18 09:23:02;;;;;;;14.60;3.00;;;;;;;22.57;41.00;101205.46;104787;1314;59847;-81
2022/05/18 09:25:41;;;;;;;20.10;3.00;;;;;;;22.58;41.05;101205.37;104106;1315;74926;-82
2022/05/18 09:28:39;;;;;;;11.80;2.90;;;;;;;22.60;41.00;101209.38;103129;1315;63906;-82
2022/05/18 09:31:31;;;;;;;10.70;2.60;;;;;;;22.56;40.96;101213.76;102823;1315;61252;-82
2022/05/18 09:33:59;;;;;;;6.30;2.00;;;;;;;22.29;40.29;101216.92;103071;1314;72920;-82
2022/05/18 09:36:56;;;;;;;8.10;2.40;;;;;;;22.08;39.97;101219.24;103192;1314;75899;-82
2022/05/18 09:39:24;;;;;;;11.70;2.40;;;;;;;22.04;40.05;101217.89;103199;1314;62043;-82
2022/05/18 09:41:53;;;;;;;9.10;2.10;;;;;;;21.94;39.50;101222.33;103082;1314;61996;-81
2022/05/18 09:44:23;;;;;;;10.70;2.20;;;;;;;21.84;39.37;101223.55;103111;1315;74230;-81
2022/05/18 09:46:49;;;;;;;12.80;3.20;;;;;;;21.88;39.42;101221.66;103121;1315;74854;-81
2022/05/18 09:49:31;;;;;;;7.00;2.00;;;;;;;21.97;39.38;101221.98;103111;1315;61321;-81
2022/05/18 09:51:58;;;;;;;7.70;2.20;;;;;;;21.98;39.08;101225.45;102666;1315;64005;-82
2022/05/18 09:54:23;;;;;;;13.80;2.40;;;;;;;21.90;38.87;101234.10;102625;1315;61213;-81
2022/05/18 09:57:04;;;;;;;12.50;2.30;;;;;;;21.79;38.32;101234.09;103061;1306;63999;-82
2022/05/18 09:59:33;;;;;;;12.30;2.30;;;;;;;21.52;37.71;101240.73;105137;1306;59760;-82
2022/05/18 10:07:31;;;;;;;14.20;2.10;;;;;;;21.04;37.28;101246.30;104845;1306;74696;-82
2022/05/18 10:10:19;;;;;;;7.30;2.20;;;;;;;21.01;37.80;101246.52;105364;1305;59470;-82
2022/05/18 10:12:54;;;;;;;13.40;2.70;;;;;;;21.17;38.18;101249.77;105448;1305;61709;-82
2022/05/18 10:15:46;;;;;;;9.50;2.30;;;;;;;21.34;38.69;101247.60;105442;1306;72697;-82
2022/05/18 10:18:33;;;;;;;9.60;2.40;;;;;;;21.46;38.70;101255.08;105399;1305;74741;-82
2022/05/18 10:21:09;;;;;;;8.90;2.30;;;;;;;21.59;38.84;101265.55;105387;1305;60394;-82
2022/05/18 10:23:47;;;;;;;7.80;2.10;;;;;;;21.71;38.97;101268.30;105439;1305;59747;-82
2022/05/18 10:26:22;;;;;;;12.40;2.30;;;;;;;21.84;39.15;101266.41;105241;1305;73069;-82
2022/05/18 10:28:55;;;;;;;10.10;2.20;;;;;;;21.95;39.37;101268.33;105439;1306;74665;-82
2022/05/18 10:31:29;;;;;;;11.40;2.40;;;;;;;22.04;39.67;101265.77;105303;1306;60477;-82
2022/05/18 10:34:28;;;;;;;14.10;2.40;;;;;;;22.12;39.59;101271.48;103853;1306;61626;-82
2022/05/18 10:36:58;;;;;;;;;;;;;;;22.19;39.60;101271.00;103814;1306;72902;-84
2022/05/18 10:39:32;;;;;;;11.70;2.50;;;;;;;22.17;39.79;101277.21;103874;1306;74649;-83
2022/05/18 10:41:57;;;;;;;14.60;2.10;;;;;;;22.19;39.51;101278.67;103919;1306;61631;-83
2022/05/18 10:44:27;;;;;;;10.60;2.20;;;;;;;22.15;39.32;101277.89;103963;1307;61345;-84
2022/05/18 10:46:53;;;;;;;15.00;2.40;;;;;;;22.16;39.10;101272.79;104041;1306;73103;-82
2022/05/18 10:49:36;;;;;;;7.20;2.60;;;;;;;22.12;39.03;101269.47;103669;1306;61419;-83
2022/05/18 10:52:13;;;;;;;9.20;2.10;;;;;;;22.11;38.70;101270.68;105284;1305;61404;-83
2022/05/18 10:54:39;;;;;;;8.40;2.40;;;;;;;21.96;38.07;101273.77;105318;1305;61711;-83
2022/05/18 10:57:16;;;;;;;7.30;2.30;;;;;;;21.69;37.23;101272.58;105311;1306;59943;-83
2022/05/18 10:59:49;;;;;;;5.80;1.80;;;;;;;21.40;36.72;101282.49;105160;1306;76990;-84
2022/05/18 11:02:56;;;;;;;10.90;2.10;;;;;;;21.16;36.35;101278.30;105304;1306;60732;-83
2022/05/18 11:05:33;;;;;;;9.40;2.10;;;;;;;21.21;36.58;101281.39;104588;1314;59784;-82
2022/05/18 11:07:58;;;;;;;12.40;2.10;;;;;;;21.35;36.82;101284.95;105303;1305;73961;-82
2022/05/18 11:10:26;;;;;;;9.60;2.00;;;;;;;21.47;36.69;101284.52;105169;1306;59575;-83
2022/05/18 11:13:41;;;;;;;7.40;2.00;;;;;;;21.51;36.36;101284.30;103826;1306;61490;-82
2022/05/18 11:16:21;;;;;;;5.50;1.80;;;;;;;21.55;36.26;101290.35;103762;1307;61635;-82
2022/05/18 11:19:15;;;;;;;10.70;2.30;;;;;;;21.59;35.97;101295.40;104284;1306;73965;-83
2022/05/18 11:22:06;;;;;;;6.10;1.80;;;;;;;21.67;36.05;101298.14;103830;1309;75107;-81
2022/05/18 11:24:48;;;;;;;12.20;1.90;;;;;;;21.69;36.08;101299.27;103386;1305;63203;-84
2022/05/18 11:27:32;;;;;;;7.10;1.70;;;;;;;21.69;35.75;101296.56;103920;1306;61496;-83
2022/05/18 11:30:13;;;;;;;6.40;2.00;;;;;;;21.73;35.88;101306.88;104072;1306;72953;-82
2022/05/18 11:33:04;;;;;;;10.80;2.30;;;;;;;21.74;35.63;101306.06;103881;1306;75109;-84
2022/05/18 11:35:40;;;;;;;16.10;2.60;;;;;;;21.77;35.65;101311.64;103872;1306;61183;-82
2022/05/18 11:38:18;;;;;;;7.90;2.10;;;;;;;21.82;36.37;101320.23;104074;1306;61455;-82
2022/05/18 11:41:14;;;;;;;12.90;2.30;;;;;;;21.85;36.58;101322.73;104019;1305;72747;-83
2022/05/18 11:44:11;;;;;;;7.10;1.80;;;;;;;21.89;36.82;101330.16;104023;1306;74953;-83
2022/05/18 11:46:45;;;;;;;10.70;2.00;;;;;;;21.91;36.64;101340.79;103186;1315;63130;-82
2022/05/18 11:49:17;;;;;;;11.30;2.20;;;;;;;21.94;36.42;101346.52;103133;1315;62049;-82
2022/05/18 11:52:04;;;;;;;10.90;2.40;;;;;;;21.96;36.13;101352.67;103217;1314;72696;-82
2022/05/18 11:54:38;;;;;;;12.50;2.10;;;;;;;21.95;35.58;101359.18;102991;1315;74768;-82
2022/05/18 11:57:34;;;;;;;15.60;2.10;;;;;;;21.95;35.39;101365.14;103270;1314;61312;-83